Main page
METAR-TAF:

METAR-TAF

Airports :

Edinburgh Airport

Edinburgh, Scotland

latitude: 55-57N, longitude: 003-21W, elevation: 41 m

Current weather observation

The report was made 31 minutes ago, at 02:20 UTC
Wind 5 kt from the West/Southwest
Temperature 10°C
Humidity 93%
Pressure 1018 hPa
Visibility 10 km or more
no clouds below 1500 m and no cumulonimbus

METAR: EGPH 240220Z 24005KT CAVOK 10/09 Q1018

Time: 03:51 (02:51 UTC)

Forecast

The report was made 3 hours and 54 minutes ago, at 22:57 UTC
Forecast valid from 24 at 00 UTC to 24 at 24 UTC
Wind 3 kt from variable directions
Visibility 10 km or more
Few clouds at a height of 3000 ft
Probability 30% :
Temporary
from 24 at 00 UTC to 24 at 07 UTC
Visibility: 8000 m
Becoming
from 24 at 07 UTC to 24 at 10 UTC
Wind 10 kt from the Southwest
Becoming
from 24 at 21 UTC to 24 at 24 UTC
Wind 5 kt from the West/Northwest

TAF: EGPH 232257Z 2400/2424 VRB03KT 9999 FEW030 PROB30 TEMPO 2400/2407 8000 BECMG 2407/2410 23010KT BECMG 2421/2424 29005KT

Weather observations and forecasts of more than 4000 airports (METAR and TAF reports).

The available stations are represented by yellow and red dots on the map.

Hover mouse over dot to see the name of the station.

Then click to see weather observations and forecasts.

To change the map : click on the green buttons with a black cross to zoom in, on the green button with a dash to zoom out, or on the green arrows for adjacent maps.


METAR-TAF: